| time (UTC) | temp F | wind direction | speed knots | gust knots | rain 1hr in | rain 24hr in | rain mn in | humidity % | barometer mb |
| 20260906111038 | 72 | 302 | 0.0 | 0.0 | 0.00 | 0.00 | 0.00 | 90 | 1016.2 |
| 20260906110537 | 72 | 307 | 0.0 | 0.0 | 0.00 | 0.00 | 0.00 | 90 | 1016.4 |
| 20260906110037 | 72 | 294 | 0.0 | 0.0 | 0.00 | 0.00 | 0.00 | 90 | 1016.0 |
| 20260906105532 | 72 | 291 | 0.0 | 0.0 | 0.00 | 0.00 | 0.00 | 90 | 1015.8 |
| 20260906105028 | 72 | 279 | 0.9 | 0.9 | 0.00 | 0.00 | 0.00 | 90 | 1015.9 |
| 20260906104526 | 72 | 302 | 0.0 | 0.0 | 0.00 | 0.00 | 0.00 | 90 | 1015.9 |
| 20260906104021 | 72 | 302 | 1.7 | 1.7 | 0.00 | 0.00 | 0.00 | 90 | 1015.8 |
| 20260906103519 | 72 | 305 | 0.0 | 0.0 | 0.00 | 0.00 | 0.00 | 90 | 1016.3 |
| 20260906103014 | 72 | 308 | 0.0 | 0.0 | 0.00 | 0.00 | 0.00 | 90 | 1016.3 |
| 20260906102509 | 72 | 308 | 0.0 | 0.0 | 0.00 | 0.00 | 0.00 | 90 | 1016.0 |
| 20260906102009 | 72 | 308 | 0.0 | 0.9 | 0.00 | 0.00 | 0.00 | 90 | 1015.9 |
| 20260906101503 | 72 | 303 | 0.0 | 0.0 | 0.00 | 0.00 | 0.00 | 90 | 1015.9 |
| 20260906100958 | 72 | 309 | 0.0 | 0.9 | 0.00 | 0.00 | 0.00 | 90 | 1016.2 |
| 20260906100453 | 72 | 303 | 0.0 | 0.0 | 0.00 | 0.00 | 0.00 | 90 | 1016.0 |
| 20260906095948 | 72 | 303 | 0.0 | 0.0 | 0.00 | 0.00 | 0.00 | 90 | 1015.9 |
| 20260906095443 | 72 | 303 | 0.0 | 0.9 | 0.00 | 0.00 | 0.00 | 90 | 1015.9 |
| 20260906094938 | 72 | 304 | 0.0 | 0.0 | 0.00 | 0.00 | 0.00 | 91 | 1015.8 |
| 20260906094432 | 72 | 309 | 0.0 | 0.0 | 0.00 | 0.00 | 0.00 | 90 | 1015.8 |
| 20260906093928 | 71 | 303 | 0.0 | 0.0 | 0.00 | 0.00 | 0.00 | 91 | 1015.8 |
| 20260906093424 | 71 | 303 | 0.0 | 0.0 | 0.00 | 0.00 | 0.00 | 91 | 1015.9 |
| 20260906092919 | 71 | 303 | 0.0 | 0.0 | 0.00 | 0.00 | 0.00 | 91 | 1015.8 |
| 20260906092418 | 71 | 303 | 0.0 | 0.0 | 0.00 | 0.00 | 0.00 | 91 | 1015.8 |
| 20260906091914 | 71 | 304 | 0.0 | 0.0 | 0.00 | 0.00 | 0.00 | 91 | 1015.6 |
| 20260906091410 | 71 | 206 | 1.7 | 1.7 | 0.00 | 0.00 | 0.00 | 90 | 1015.6 |
| 20260906090906 | 71 | 301 | 0.0 | 0.0 | 0.00 | 0.00 | 0.00 | 91 | 1015.5 |
| 20260906090406 | 71 | 306 | 0.0 | 0.0 | 0.00 | 0.00 | 0.00 | 91 | 1015.6 |
| 20260906085901 | 71 | 306 | 0.0 | 0.0 | 0.00 | 0.00 | 0.00 | 91 | 1015.4 |
| 20260906085400 | 71 | 306 | 0.0 | 0.0 | 0.00 | 0.00 | 0.00 | 91 | 1015.6 |
| 20260906084900 | 71 | 301 | 0.0 | 0.0 | 0.00 | 0.00 | 0.00 | 91 | 1015.4 |
| 20260906084354 | 71 | 306 | 0.9 | 0.9 | 0.00 | 0.00 | 0.00 | 91 | 1015.4 |
| 20260906083848 | 71 | 301 | 0.0 | 0.0 | 0.00 | 0.00 | 0.00 | 91 | 1015.3 |
| 20260906083344 | 70 | 306 | 0.0 | 0.9 | 0.00 | 0.00 | 0.00 | 91 | 1015.4 |
| 20260906082844 | 70 | 297 | 0.0 | 0.0 | 0.00 | 0.00 | 0.00 | 91 | 1015.1 |
| 20260906082338 | 70 | 273 | 0.9 | 0.9 | 0.00 | 0.00 | 0.00 | 91 | 1015.1 |
| 20260906081835 | 70 | 294 | 0.0 | 0.0 | 0.00 | 0.00 | 0.00 | 91 | 1015.0 |
| 20260906081330 | 70 | 285 | 0.9 | 0.9 | 0.00 | 0.00 | 0.00 | 91 | 1015.3 |
| 20260906080826 | 70 | 307 | 0.0 | 0.0 | 0.00 | 0.00 | 0.00 | 91 | 1015.1 |
| 20260906080322 | 70 | 302 | 0.0 | 0.0 | 0.00 | 0.00 | 0.00 | 92 | 1015.2 |
| 20260906075821 | 70 | 303 | 0.0 | 0.0 | 0.00 | 0.00 | 0.00 | 93 | 1015.0 |
| 20260906075316 | 70 | 307 | 0.0 | 0.0 | 0.00 | 0.00 | 0.00 | 93 | 1015.1 |
| 20260906074812 | 70 | 302 | 0.0 | 0.0 | 0.00 | 0.00 | 0.00 | 93 | 1015.1 |
| 20260906074311 | 70 | 302 | 0.0 | 0.9 | 0.00 | 0.00 | 0.00 | 93 | 1015.0 |
| 20260906073810 | 70 | 305 | 0.9 | 0.9 | 0.00 | 0.00 | 0.00 | 93 | 1014.8 |
| 20260906073305 | 70 | 289 | 0.0 | 0.9 | 0.00 | 0.00 | 0.00 | 92 | 1014.9 |
| 20260906072801 | 70 | 302 | 0.0 | 0.0 | 0.00 | 0.00 | 0.00 | 92 | 1015.0 |
| 20260906072257 | 70 | 302 | 0.0 | 0.0 | 0.00 | 0.00 | 0.00 | 91 | 1014.9 |
| 20260906071753 | 70 | 302 | 0.0 | 0.0 | 0.00 | 0.00 | 0.00 | 91 | 1014.8 |
| 20260906071253 | 70 | 287 | 0.9 | 0.9 | 0.00 | 0.00 | 0.00 | 91 | 1014.9 |
| 20260906070749 | 70 | 303 | 0.0 | 0.0 | 0.00 | 0.00 | 0.00 | 91 | 1015.1 |
| 20260906070244 | 70 | 302 | 0.0 | 0.0 | 0.00 | 0.00 | 0.00 | 91 | 1015.1 |
| 20260906065744 | 70 | 302 | 0.0 | 0.0 | 0.00 | 0.00 | 0.00 | 91 | 1015.0 |
| 20260906065239 | 71 | 301 | 0.9 | 0.9 | 0.00 | 0.00 | 0.00 | 91 | 1015.2 |
| 20260906064735 | 70 | 302 | 0.9 | 0.9 | 0.00 | 0.00 | 0.00 | 91 | 1015.0 |
| 20260906064230 | 70 | 303 | 0.0 | 0.0 | 0.00 | 0.00 | 0.00 | 90 | 1015.2 |
| 20260906063725 | 71 | 308 | 0.9 | 0.9 | 0.00 | 0.00 | 0.00 | 90 | 1015.4 |
| 20260906063221 | 71 | 300 | 0.9 | 1.7 | 0.00 | 0.00 | 0.00 | 90 | 1015.3 |
| 20260906062716 | 71 | 302 | 0.9 | 0.9 | 0.00 | 0.00 | 0.00 | 89 | 1015.5 |
| 20260906062215 | 71 | 290 | 0.9 | 0.9 | 0.00 | 0.00 | 0.00 | 89 | 1015.5 |
| 20260906061711 | 71 | 302 | 0.9 | 0.9 | 0.00 | 0.00 | 0.00 | 89 | 1015.4 |
| 20260906061207 | 71 | 287 | 0.9 | 1.7 | 0.00 | 0.00 | 0.00 | 89 | 1015.5 |
| 20260906060703 | 71 | 302 | 0.9 | 1.7 | 0.00 | 0.00 | 0.00 | 88 | 1015.5 |
| 20260906060200 | 71 | 309 | 0.9 | 0.9 | 0.00 | 0.00 | 0.00 | 88 | 1015.5 |
| 20260906055655 | 71 | 294 | 0.9 | 0.9 | 0.00 | 0.00 | 0.00 | 88 | 1015.4 |
| 20260906055150 | 71 | 299 | 0.9 | 1.7 | 0.00 | 0.00 | 0.00 | 88 | 1015.5 |
| 20260906054645 | 71 | 295 | 0.9 | 0.9 | 0.00 | 0.00 | 0.00 | 87 | 1015.6 |
| 20260906054140 | 72 | 299 | 1.7 | 1.7 | 0.00 | 0.00 | 0.00 | 87 | 1015.7 |
| 20260906053638 | 72 | 302 | 0.9 | 0.9 | 0.00 | 0.00 | 0.00 | 87 | 1015.6 |
| 20260906053138 | 72 | 304 | 0.9 | 0.9 | 0.00 | 0.00 | 0.00 | 87 | 1015.8 |
| 20260906052634 | 72 | 302 | 0.9 | 0.9 | 0.00 | 0.00 | 0.00 | 87 | 1015.7 |
| 20260906052130 | 72 | 303 | 0.9 | 0.9 | 0.00 | 0.00 | 0.00 | 87 | 1015.8 |
| 20260906051626 | 72 | 302 | 0.0 | 0.9 | 0.00 | 0.00 | 0.00 | 86 | 1015.7 |
| 20260906051126 | 72 | 303 | 0.9 | 0.9 | 0.00 | 0.00 | 0.00 | 86 | 1015.5 |
| 20260906050621 | 72 | 301 | 0.9 | 0.9 | 0.00 | 0.00 | 0.00 | 86 | 1015.4 |
| 20260906050117 | 72 | 302 | 0.0 | 0.9 | 0.00 | 0.00 | 0.00 | 85 | 1015.3 |
| 20260906045614 | 72 | 303 | 0.9 | 0.9 | 0.00 | 0.00 | 0.00 | 84 | 1015.4 |
| 20260906045110 | 73 | 303 | 0.9 | 0.9 | 0.00 | 0.00 | 0.00 | 84 | 1015.5 |
| 20260906044606 | 73 | 298 | 0.9 | 0.9 | 0.00 | 0.00 | 0.00 | 84 | 1015.4 |
| 20260906044100 | 73 | 309 | 0.0 | 0.9 | 0.00 | 0.00 | 0.00 | 83 | 1015.3 |
| 20260906043557 | 73 | 300 | 1.7 | 1.7 | 0.00 | 0.00 | 0.00 | 83 | 1015.3 |
| 20260906043053 | 73 | 308 | 0.9 | 0.9 | 0.00 | 0.00 | 0.00 | 83 | 1015.5 |
| 20260906042551 | 73 | 302 | 0.9 | 0.9 | 0.00 | 0.00 | 0.00 | 82 | 1015.2 |
| 20260906042046 | 73 | 308 | 0.9 | 0.9 | 0.00 | 0.00 | 0.00 | 82 | 1015.3 |
| 20260906041542 | 74 | 306 | 1.7 | 1.7 | 0.00 | 0.00 | 0.00 | 81 | 1015.3 |
| 20260906041037 | 74 | 303 | 0.9 | 0.9 | 0.00 | 0.00 | 0.00 | 81 | 1015.4 |
| 20260906040532 | 74 | 308 | 0.9 | 0.9 | 0.00 | 0.00 | 0.00 | 80 | 1015.4 |
| 20260906040028 | 74 | 297 | 0.9 | 0.9 | 0.00 | 0.00 | 0.00 | 80 | 1015.4 |
| 20260906035523 | 75 | 302 | 0.9 | 0.9 | 0.00 | 0.00 | 0.00 | 79 | 1015.5 |
| 20260906035019 | 75 | 302 | 0.0 | 0.9 | 0.00 | 0.00 | 0.00 | 79 | 1015.6 |
| 20260906034518 | 75 | 302 | 0.0 | 0.9 | 0.00 | 0.00 | 0.00 | 78 | 1015.5 |
| 20260906034014 | 75 | 308 | 0.0 | 0.0 | 0.00 | 0.00 | 0.00 | 77 | 1015.4 |
| 20260906033508 | 75 | 308 | 0.0 | 0.0 | 0.00 | 0.00 | 0.00 | 76 | 1015.7 |
| 20260906033004 | 76 | 309 | 0.0 | 0.0 | 0.00 | 0.00 | 0.00 | 76 | 1016.3 |
| 20260906032455 | 76 | 302 | 0.0 | 0.0 | 0.00 | 0.00 | 0.00 | 75 | 1015.6 |
| 20260906031954 | 77 | 302 | 0.0 | 0.0 | 0.00 | 0.00 | 0.00 | 75 | 1015.5 |
| 20260906031450 | 77 | 326 | 0.0 | 0.9 | 0.00 | 0.00 | 0.00 | 73 | 1015.4 |
| 20260906030945 | 78 | 288 | 1.7 | 1.7 | 0.00 | 0.00 | 0.00 | 73 | 1015.8 |
| 20260906030440 | 77 | 347 | 0.9 | 1.7 | 0.00 | 0.00 | 0.00 | 73 | 1015.5 |
| 20260906025934 | 77 | 310 | 1.7 | 1.7 | 0.00 | 0.00 | 0.00 | 73 | 1015.4 |
| 20260906025428 | 78 | 303 | 0.0 | 0.9 | 0.00 | 0.00 | 0.00 | 73 | 1015.4 |
| 20260906024927 | 78 | 300 | 0.0 | 0.9 | 0.00 | 0.00 | 0.00 | 72 | 1015.6 |
| 20260906024426 | 78 | 218 | 1.7 | 1.7 | 0.00 | 0.00 | 0.00 | 73 | 1015.6 |
| 20260906023922 | 78 | 276 | 1.7 | 1.7 | 0.00 | 0.00 | 0.00 | 72 | 1015.2 |
| 20260906023418 | 78 | 300 | 0.0 | 0.9 | 0.00 | 0.00 | 0.00 | 72 | 1015.3 |
| 20260906022918 | 77 | 221 | 2.6 | 2.6 | 0.00 | 0.00 | 0.00 | 73 | 1015.2 |
| 20260906022413 | 77 | 292 | 0.0 | 0.0 | 0.00 | 0.00 | 0.00 | 73 | 1015.2 |
| 20260906021909 | 78 | 299 | 0.9 | 0.9 | 0.00 | 0.00 | 0.00 | 72 | 1015.1 |
| 20260906021408 | 78 | 299 | 0.9 | 1.7 | 0.00 | 0.00 | 0.00 | 72 | 1015.3 |
| 20260906020903 | 78 | 299 | 0.9 | 0.9 | 0.00 | 0.00 | 0.00 | 71 | 1015.2 |
| 20260906020357 | 78 | 299 | 0.9 | 0.9 | 0.00 | 0.00 | 0.00 | 71 | 1015.4 |
| 20260906015852 | 78 | 300 | 0.0 | 0.9 | 0.00 | 0.00 | 0.00 | 70 | 1015.0 |
| 20260906015351 | 79 | 300 | 0.9 | 0.9 | 0.00 | 0.00 | 0.00 | 69 | 1015.0 |
| 20260906014845 | 79 | 315 | 1.7 | 1.7 | 0.00 | 0.00 | 0.00 | 68 | 1014.8 |
| 20260906014345 | 80 | 302 | 0.9 | 0.9 | 0.00 | 0.00 | 0.00 | 67 | 1014.9 |
| 20260906013841 | 79 | 288 | 0.0 | 0.9 | 0.00 | 0.00 | 0.00 | 68 | 1015.0 |
| 20260906013336 | 79 | 300 | 0.0 | 0.9 | 0.00 | 0.00 | 0.00 | 68 | 1014.8 |
| 20260906012832 | 80 | 312 | 0.0 | 0.0 | 0.00 | 0.00 | 0.00 | 67 | 1014.9 |
| 20260906012327 | 80 | 300 | 0.0 | 0.9 | 0.00 | 0.00 | 0.00 | 66 | 1014.5 |
| 20260906011827 | 80 | 300 | 0.0 | 0.0 | 0.00 | 0.00 | 0.00 | 66 | 1014.6 |
| 20260906011321 | 80 | 300 | 0.0 | 0.9 | 0.00 | 0.00 | 0.00 | 65 | 1014.4 |
| 20260906010818 | 81 | 312 | 0.0 | 0.0 | 0.00 | 0.00 | 0.00 | 64 | 1014.5 |
| 20260906010314 | 81 | 300 | 0.0 | 0.0 | 0.00 | 0.00 | 0.00 | 64 | 1014.3 |
| 20260906005809 | 82 | 290 | 0.0 | 0.9 | 0.00 | 0.00 | 0.00 | 63 | 1014.4 |
| 20260906005307 | 82 | 290 | 0.9 | 1.7 | 0.00 | 0.00 | 0.00 | 62 | 1014.4 |
| 20260906004806 | 82 | 295 | 0.9 | 0.9 | 0.00 | 0.00 | 0.00 | 62 | 1014.6 |
| 20260906004301 | 82 | 299 | 0.9 | 0.9 | 0.00 | 0.00 | 0.00 | 61 | 1014.3 |
| 20260906003756 | 82 | 288 | 0.0 | 0.9 | 0.00 | 0.00 | 0.00 | 61 | 1014.2 |
| 20260906003252 | 82 | 295 | 0.9 | 0.9 | 0.00 | 0.00 | 0.00 | 61 | 1014.0 |
| 20260906002747 | 83 | 296 | 2.6 | 2.6 | 0.00 | 0.00 | 0.00 | 60 | 1014.1 |
| 20260906002247 | 83 | 291 | 0.9 | 1.7 | 0.00 | 0.00 | 0.00 | 61 | 1014.0 |
| 20260906001742 | 83 | 310 | 1.7 | 2.6 | 0.00 | 0.00 | 0.00 | 59 | 1014.0 |
| 20260906001237 | 84 | 298 | 1.7 | 1.7 | 0.00 | 0.00 | 0.00 | 59 | 1014.0 |
| 20260906000733 | 84 | 317 | 0.0 | 0.9 | 0.00 | 0.00 | 0.00 | 59 | 1014.1 |
| 20260906000234 | 84 | 332 | 0.9 | 0.9 | 0.00 | 0.00 | 0.00 | 59 | 1014.0 |
| 20260905235733 | 84 | 298 | 1.7 | 1.7 | 0.00 | 0.00 | 0.00 | 58 | 1013.8 |
| 20260905235227 | 84 | 291 | 2.6 | 4.3 | 0.00 | 0.00 | 0.00 | 58 | 1013.5 |
| 20260905234723 | 85 | 288 | 3.5 | 4.3 | 0.00 | 0.00 | 0.00 | 57 | 1013.7 |
| 20260905234218 | 85 | 24 | 1.7 | 2.6 | 0.00 | 0.00 | 0.00 | 58 | 1013.6 |
| 20260905233713 | 85 | 308 | 1.7 | 1.7 | 0.00 | 0.00 | 0.00 | 57 | 1013.6 |
| 20260905233212 | 85 | 307 | 0.9 | 0.9 | 0.00 | 0.00 | 0.00 | 58 | 1013.8 |
| 20260905232707 | 86 | 314 | 0.9 | 0.9 | 0.00 | 0.00 | 0.00 | 57 | 1013.7 |
| 20260905232203 | 86 | 299 | 2.6 | 4.3 | 0.00 | 0.00 | 0.00 | 57 | 1013.6 |
| 20260905231659 | 86 | 296 | 0.9 | 1.7 | 0.00 | 0.00 | 0.00 | 57 | 1013.8 |
| 20260905231154 | 87 | 272 | 2.6 | 2.6 | 0.00 | 0.00 | 0.00 | 56 | 1013.8 |
| 20260905230650 | 87 | 286 | 2.6 | 4.3 | 0.00 | 0.00 | 0.00 | 55 | 1013.9 |
| 20260905230148 | 89 | 298 | 1.7 | 1.7 | 0.00 | 0.00 | 0.00 | 53 | 1013.7 |
| 20260905225647 | 89 | 299 | 2.6 | 2.6 | 0.00 | 0.00 | 0.00 | 54 | 1013.8 |
| 20260905225142 | 89 | 286 | 0.9 | 1.7 | 0.00 | 0.00 | 0.00 | 53 | 1013.8 |
| 20260905224641 | 89 | 291 | 1.7 | 1.7 | 0.00 | 0.00 | 0.00 | 53 | 1013.6 |
| 20260905224136 | 89 | 289 | 0.9 | 1.7 | 0.00 | 0.00 | 0.00 | 52 | 1013.7 |
| 20260905223633 | 89 | 298 | 1.7 | 2.6 | 0.00 | 0.00 | 0.00 | 52 | 1013.8 |
| 20260905223130 | 89 | 304 | 6.1 | 7.8 | 0.00 | 0.00 | 0.00 | 52 | 1013.6 |
| 20260905222625 | 90 | 260 | 5.2 | 7.0 | 0.00 | 0.00 | 0.00 | 51 | 1013.6 |
| 20260905222120 | 90 | 301 | 6.1 | 7.8 | 0.00 | 0.00 | 0.00 | 51 | 1013.6 |
| 20260905221615 | 90 | 295 | 1.7 | 2.6 | 0.00 | 0.00 | 0.00 | 52 | 1013.6 |
| 20260905221112 | 90 | 284 | 0.9 | 0.9 | 0.00 | 0.00 | 0.00 | 52 | 1013.6 |
| 20260905220607 | 90 | 288 | 1.7 | 1.7 | 0.00 | 0.00 | 0.00 | 53 | 1013.5 |
| 20260905215602 | 90 | 292 | 1.7 | 1.7 | 0.00 | 0.00 | 0.00 | 53 | 1013.5 |
| 20260905215058 | 90 | 286 | 3.5 | 5.2 | 0.00 | 0.00 | 0.00 | 53 | 1013.5 |
| 20260905214554 | 90 | 276 | 4.3 | 5.2 | 0.00 | 0.00 | 0.00 | 52 | 1013.3 |
| 20260905214049 | 90 | 282 | 5.2 | 5.2 | 0.00 | 0.00 | 0.00 | 53 | 1013.5 |
| 20260905213544 | 90 | 300 | 0.0 | 0.9 | 0.00 | 0.00 | 0.00 | 54 | 1013.4 |
| 20260905213039 | 91 | 297 | 3.5 | 6.1 | 0.00 | 0.00 | 0.00 | 54 | 1013.2 |
| 20260905212534 | 89 | 293 | 1.7 | 1.7 | 0.00 | 0.00 | 0.00 | 55 | 1013.0 |
| 20260905212034 | 89 | 282 | 2.6 | 4.3 | 0.00 | 0.00 | 0.00 | 55 | 1012.9 |
| 20260905211529 | 89 | 262 | 2.6 | 2.6 | 0.00 | 0.00 | 0.00 | 55 | 1013.0 |
| 20260905211025 | 88 | 286 | 0.9 | 1.7 | 0.00 | 0.00 | 0.00 | 55 | 1013.0 |
| 20260905210520 | 89 | 291 | 2.6 | 4.3 | 0.00 | 0.00 | 0.00 | 55 | 1013.3 |
| 20260905210020 | 89 | 289 | 0.9 | 1.7 | 0.00 | 0.00 | 0.00 | 54 | 1013.3 |
| 20260905205514 | 89 | 297 | 2.6 | 4.3 | 0.00 | 0.00 | 0.00 | 54 | 1013.0 |
| 20260905205013 | 89 | 312 | 2.6 | 2.6 | 0.00 | 0.00 | 0.00 | 54 | 1013.2 |
| 20260905204509 | 89 | 284 | 4.3 | 5.2 | 0.00 | 0.00 | 0.00 | 54 | 1013.2 |
| 20260905204009 | 89 | 271 | 2.6 | 4.3 | 0.00 | 0.00 | 0.00 | 53 | 1013.2 |
| 20260905203504 | 89 | 324 | 4.3 | 6.1 | 0.00 | 0.00 | 0.00 | 53 | 1013.2 |
| 20260905202959 | 89 | 276 | 0.9 | 1.7 | 0.00 | 0.00 | 0.00 | 53 | 1013.0 |
| 20260905202454 | 89 | 323 | 2.6 | 2.6 | 0.00 | 0.00 | 0.00 | 52 | 1013.2 |
| 20260905201949 | 90 | 284 | 2.6 | 4.3 | 0.00 | 0.00 | 0.00 | 50 | 1013.3 |
| 20260905201445 | 91 | 296 | 4.3 | 7.0 | 0.00 | 0.00 | 0.00 | 51 | 1012.8 |
| 20260905200944 | 91 | 286 | 3.5 | 5.2 | 0.00 | 0.00 | 0.00 | 50 | 1012.9 |
| 20260905200440 | 91 | 295 | 2.6 | 2.6 | 0.00 | 0.00 | 0.00 | 50 | 1012.8 |
| 20260905195939 | 90 | 296 | 1.7 | 1.7 | 0.00 | 0.00 | 0.00 | 49 | 1012.8 |
| 20260905195434 | 90 | 299 | 1.7 | 1.7 | 0.00 | 0.00 | 0.00 | 51 | 1012.6 |
| 20260905194930 | 90 | 247 | 6.1 | 7.8 | 0.00 | 0.00 | 0.00 | 50 | 1012.9 |
| 20260905194428 | 91 | 305 | 3.5 | 4.3 | 0.00 | 0.00 | 0.00 | 49 | 1012.8 |
| 20260905193923 | 90 | 287 | 2.6 | 2.6 | 0.00 | 0.00 | 0.00 | 49 | 1012.7 |
| 20260905193418 | 89 | 304 | 5.2 | 7.0 | 0.00 | 0.00 | 0.00 | 49 | 1012.9 |
| 20260905192913 | 90 | 294 | 1.7 | 1.7 | 0.00 | 0.00 | 0.00 | 49 | 1012.9 |
| 20260905192409 | 89 | 323 | 2.6 | 2.6 | 0.00 | 0.00 | 0.00 | 49 | 1013.3 |
| 20260905191909 | 90 | 286 | 2.6 | 4.3 | 0.00 | 0.00 | 0.00 | 48 | 1013.3 |
| 20260905191408 | 90 | 282 | 2.6 | 4.3 | 0.00 | 0.00 | 0.00 | 48 | 1013.2 |
| 20260905190902 | 90 | 299 | 2.6 | 4.3 | 0.00 | 0.00 | 0.00 | 50 | 1013.2 |
| 20260905190354 | 91 | 280 | 3.5 | 5.2 | 0.00 | 0.00 | 0.00 | 50 | 1013.4 |
| 20260905185853 | 90 | 28 | 2.6 | 4.3 | 0.00 | 0.00 | 0.00 | 51 | 1013.5 |
| 20260905185348 | 90 | 304 | 2.6 | 2.6 | 0.00 | 0.00 | 0.00 | 53 | 1013.8 |
| 20260905184842 | 90 | 332 | 2.6 | 2.6 | 0.00 | 0.00 | 0.00 | 53 | 1014.2 |
| 20260905184341 | 89 | 357 | 0.9 | 1.7 | 0.00 | 0.00 | 0.00 | 58 | 1014.2 |
| 20260905183840 | 89 | 310 | 0.9 | 1.7 | 0.00 | 0.00 | 0.00 | 57 | 1014.4 |
| 20260905183335 | 89 | 287 | 1.7 | 1.7 | 0.00 | 0.00 | 0.00 | 56 | 1014.4 |
| 20260905182830 | 87 | 328 | 5.2 | 6.1 | 0.00 | 0.00 | 0.00 | 58 | 1014.4 |
| 20260905182329 | 88 | 278 | 3.5 | 5.2 | 0.00 | 0.00 | 0.00 | 60 | 1014.6 |
| 20260905181825 | 86 | 195 | 3.5 | 5.2 | 0.00 | 0.00 | 0.00 | 61 | 1014.7 |
| 20260905181324 | 86 | 300 | 2.6 | 4.3 | 0.00 | 0.00 | 0.00 | 62 | 1014.6 |
| 20260905180823 | 86 | 264 | 4.3 | 5.2 | 0.00 | 0.00 | 0.00 | 62 | 1014.6 |
| 20260905180319 | 87 | 280 | 3.5 | 4.3 | 0.00 | 0.00 | 0.00 | 62 | 1014.8 |
| 20260905175814 | 87 | 292 | 2.6 | 4.3 | 0.00 | 0.00 | 0.00 | 61 | 1014.7 |
| 20260905175308 | 86 | 300 | 0.9 | 1.7 | 0.00 | 0.00 | 0.00 | 62 | 1015.0 |
| 20260905174804 | 85 | 317 | 0.9 | 0.9 | 0.00 | 0.00 | 0.00 | 62 | 1014.9 |
| 20260905174259 | 85 | 299 | 2.6 | 4.3 | 0.00 | 0.00 | 0.00 | 61 | 1014.9 |
| 20260905173755 | 85 | 327 | 4.3 | 6.1 | 0.00 | 0.00 | 0.00 | 61 | 1014.7 |
| 20260905173251 | 85 | 20 | 2.6 | 2.6 | 0.00 | 0.00 | 0.00 | 61 | 1014.8 |
| 20260905172750 | 86 | 313 | 2.6 | 2.6 | 0.00 | 0.00 | 0.00 | 61 | 1014.9 |
| 20260905172249 | 86 | 301 | 2.6 | 2.6 | 0.00 | 0.00 | 0.00 | 61 | 1014.9 |
| 20260905171745 | 86 | 184 | 5.2 | 6.1 | 0.00 | 0.00 | 0.00 | 61 | 1014.7 |
| 20260905171242 | 86 | 332 | 1.7 | 1.7 | 0.00 | 0.00 | 0.00 | 61 | 1014.9 |
| 20260905170738 | 86 | 1 | 1.7 | 1.7 | 0.00 | 0.00 | 0.00 | 61 | 1015.2 |
| 20260905170233 | 86 | 276 | 1.7 | 2.6 | 0.00 | 0.00 | 0.00 | 62 | 1015.0 |
| 20260905165732 | 86 | 260 | 0.9 | 0.9 | 0.00 | 0.00 | 0.00 | 63 | 1015.0 |
| 20260905165228 | 86 | 336 | 3.5 | 4.3 | 0.00 | 0.00 | 0.00 | 62 | 1015.3 |
| 20260905164728 | 85 | 300 | 2.6 | 2.6 | 0.00 | 0.00 | 0.00 | 63 | 1015.3 |
| 20260905164222 | 85 | 55 | 3.5 | 5.2 | 0.00 | 0.00 | 0.00 | 63 | 1015.4 |
| 20260905163719 | 85 | 250 | 1.7 | 1.7 | 0.00 | 0.00 | 0.00 | 64 | 1015.8 |
| 20260905163215 | 85 | 124 | 2.6 | 4.3 | 0.00 | 0.00 | 0.00 | 63 | 1015.4 |
| 20260905162711 | 84 | 288 | 5.2 | 6.1 | 0.00 | 0.00 | 0.00 | 64 | 1015.8 |
| 20260905162210 | 84 | 283 | 3.5 | 5.2 | 0.00 | 0.00 | 0.00 | 65 | 1015.8 |
| 20260905161705 | 84 | 263 | 4.3 | 5.2 | 0.00 | 0.00 | 0.00 | 64 | 1016.0 |
| 20260905161203 | 84 | 153 | 3.5 | 5.2 | 0.00 | 0.00 | 0.00 | 66 | 1015.7 |
| 20260905160656 | 83 | 289 | 0.0 | 0.0 | 0.00 | 0.00 | 0.00 | 67 | 1015.8 |
| 20260905160155 | 83 | 281 | 0.9 | 1.7 | 0.00 | 0.00 | 0.00 | 67 | 1015.9 |
| 20260905155650 | 84 | 318 | 4.3 | 5.2 | 0.00 | 0.00 | 0.00 | 65 | 1016.5 |
| 20260905155149 | 84 | 282 | 0.9 | 0.9 | 0.00 | 0.00 | 0.00 | 64 | 1016.0 |
| 20260905154644 | 84 | 270 | 1.7 | 2.6 | 0.00 | 0.00 | 0.00 | 64 | 1016.4 |
| 20260905154139 | 84 | 271 | 0.0 | 0.9 | 0.00 | 0.00 | 0.00 | 67 | 1016.7 |
| 20260905153635 | 83 | 298 | 0.9 | 0.9 | 0.00 | 0.00 | 0.00 | 67 | 1016.8 |
| 20260905153130 | 83 | 276 | 3.5 | 5.2 | 0.00 | 0.00 | 0.00 | 67 | 1016.7 |
| 20260905152625 | 82 | 291 | 2.6 | 4.3 | 0.00 | 0.00 | 0.00 | 68 | 1016.4 |
| 20260905152119 | 83 | 271 | 2.6 | 2.6 | 0.00 | 0.00 | 0.00 | 68 | 1016.7 |
| 20260905151614 | 83 | 288 | 1.7 | 1.7 | 0.00 | 0.00 | 0.00 | 69 | 1016.8 |
| 20260905151104 | 83 | 299 | 3.5 | 5.2 | 0.00 | 0.00 | 0.00 | 69 | 1016.6 |
| 20260905150600 | 83 | 350 | 4.3 | 5.2 | 0.00 | 0.00 | 0.00 | 68 | 1016.4 |
| 20260905150057 | 84 | 7 | 1.7 | 4.3 | 0.00 | 0.00 | 0.00 | 69 | 1016.3 |
| 20260905145551 | 84 | 343 | 6.1 | 9.6 | 0.00 | 0.00 | 0.00 | 69 | 1016.7 |
| 20260905145050 | 83 | 296 | 2.6 | 4.3 | 0.00 | 0.00 | 0.00 | 73 | 1016.4 |
| 20260905144545 | 83 | 304 | 1.7 | 2.6 | 0.00 | 0.00 | 0.00 | 72 | 1016.4 |
| 20260905144044 | 84 | 345 | 1.7 | 2.6 | 0.00 | 0.00 | 0.00 | 72 | 1015.8 |
| 20260905143544 | 84 | 336 | 2.6 | 4.3 | 0.00 | 0.00 | 0.00 | 72 | 1015.8 |
| 20260905143039 | 84 | 257 | 0.0 | 0.9 | 0.00 | 0.00 | 0.00 | 72 | 1015.8 |
| 20260905142537 | 84 | 298 | 0.9 | 1.7 | 0.00 | 0.00 | 0.00 | 71 | 1016.0 |
| 20260905142033 | 84 | 195 | 3.5 | 4.3 | 0.00 | 0.00 | 0.00 | 71 | 1016.0 |
| 20260905141527 | 84 | 221 | 4.3 | 5.2 | 0.00 | 0.00 | 0.00 | 71 | 1015.8 |
| 20260905141024 | 84 | 152 | 4.3 | 6.1 | 0.00 | 0.00 | 0.00 | 71 | 1015.8 |
| 20260905140524 | 83 | 314 | 2.6 | 4.3 | 0.00 | 0.00 | 0.00 | 71 | 1015.9 |
| 20260905140023 | 83 | 209 | 1.7 | 2.6 | 0.00 | 0.00 | 0.00 | 72 | 1015.7 |
| 20260905135519 | 83 | 303 | 0.9 | 0.9 | 0.00 | 0.00 | 0.00 | 71 | 1015.7 |
| 20260905135013 | 83 | 305 | 0.9 | 1.7 | 0.00 | 0.00 | 0.00 | 71 | 1015.8 |
| 20260905134508 | 83 | 281 | 1.7 | 1.7 | 0.00 | 0.00 | 0.00 | 72 | 1015.8 |
| 20260905134007 | 82 | 327 | 2.6 | 2.6 | 0.00 | 0.00 | 0.00 | 73 | 1015.8 |
| 20260905133503 | 82 | 251 | 4.3 | 6.1 | 0.00 | 0.00 | 0.00 | 73 | 1015.8 |
| 20260905133002 | 81 | 345 | 0.9 | 1.7 | 0.00 | 0.00 | 0.00 | 74 | 1015.7 |
| 20260905132457 | 80 | 302 | 3.5 | 4.3 | 0.00 | 0.00 | 0.00 | 75 | 1015.8 |
| 20260905131951 | 80 | 269 | 3.5 | 4.3 | 0.00 | 0.00 | 0.00 | 75 | 1015.9 |
| 20260905131447 | 80 | 337 | 3.5 | 5.2 | 0.00 | 0.00 | 0.00 | 75 | 1015.6 |
| 20260905130942 | 80 | 7 | 6.1 | 7.8 | 0.00 | 0.00 | 0.00 | 75 | 1015.6 |
| 20260905130442 | 80 | 319 | 1.7 | 2.6 | 0.00 | 0.00 | 0.00 | 76 | 1015.8 |
| 20260905125941 | 80 | 337 | 4.3 | 7.0 | 0.00 | 0.00 | 0.00 | 76 | 1015.5 |
| 20260905125436 | 80 | 281 | 1.7 | 4.3 | 0.00 | 0.00 | 0.00 | 76 | 1015.7 |
| 20260905124932 | 79 | 283 | 1.7 | 1.7 | 0.00 | 0.00 | 0.00 | 78 | 1015.9 |
| 20260905124428 | 78 | 291 | 1.7 | 1.7 | 0.00 | 0.00 | 0.00 | 79 | 1015.8 |
| 20260905123928 | 78 | 273 | 4.3 | 7.0 | 0.00 | 0.00 | 0.00 | 79 | 1015.5 |
| 20260905123425 | 78 | 308 | 2.6 | 2.6 | 0.00 | 0.00 | 0.00 | 79 | 1015.7 |
| 20260905122920 | 77 | 279 | 2.6 | 5.2 | 0.00 | 0.00 | 0.00 | 79 | 1015.6 |
| 20260905122419 | 77 | 270 | 2.6 | 4.3 | 0.00 | 0.00 | 0.00 | 80 | 1015.7 |
| 20260905121915 | 77 | 317 | 2.6 | 2.6 | 0.00 | 0.00 | 0.00 | 81 | 1015.6 |
| 20260905121411 | 76 | 306 | 2.6 | 4.3 | 0.00 | 0.00 | 0.00 | 82 | 1015.8 |
| 20260905120909 | 76 | 335 | 5.2 | 7.0 | 0.00 | 0.00 | 0.00 | 82 | 1015.6 |
| 20260905120404 | 75 | 288 | 0.9 | 1.7 | 0.00 | 0.00 | 0.00 | 83 | 1015.6 |
| 20260905115859 | 75 | 299 | 3.5 | 5.2 | 0.00 | 0.00 | 0.00 | 83 | 1015.7 |
| 20260905115358 | 75 | 286 | 3.5 | 4.3 | 0.00 | 0.00 | 0.00 | 84 | 1015.6 |
| 20260905114853 | 75 | 336 | 5.2 | 6.1 | 0.00 | 0.00 | 0.00 | 84 | 1015.6 |
| 20260905114352 | 75 | 272 | 4.3 | 5.2 | 0.00 | 0.00 | 0.00 | 84 | 1015.5 |
| 20260905113852 | 75 | 331 | 3.5 | 6.1 | 0.00 | 0.00 | 0.00 | 84 | 1015.8 |
| 20260905113348 | 75 | 291 | 7.0 | 8.7 | 0.00 | 0.00 | 0.00 | 85 | 1015.5 |
| 20260905112843 | 75 | 98 | 2.6 | 2.6 | 0.00 | 0.00 | 0.00 | 84 | 1015.3 |
| 20260905112337 | 75 | 349 | 4.3 | 5.2 | 0.00 | 0.00 | 0.00 | 84 | 1015.4 |
| 20260905111833 | 75 | 304 | 3.5 | 4.3 | 0.00 | 0.00 | 0.00 | 84 | 1015.6 |